sensor_id;sensor_type;location;lat;lon;timestamp;P1;durP1;ratioP1;P2;durP2;ratioP2
75419;SDS011;63998;52.488;13.428;2023-02-15T00:01:33;27.42;;;12.45;;
75419;SDS011;63998;52.488;13.428;2023-02-15T00:04:00;25.15;;;12.57;;
75419;SDS011;63998;52.488;13.428;2023-02-15T00:06:25;29.40;;;13.23;;
75419;SDS011;63998;52.488;13.428;2023-02-15T00:08:53;26.73;;;12.63;;
75419;SDS011;63998;52.488;13.428;2023-02-15T00:11:19;27.73;;;13.05;;
75419;SDS011;63998;52.488;13.428;2023-02-15T00:14:07;26.67;;;11.90;;
75419;SDS011;63998;52.488;13.428;2023-02-15T00:16:35;32.20;;;14.27;;
75419;SDS011;63998;52.488;13.428;2023-02-15T00:19:03;27.95;;;13.02;;
75419;SDS011;63998;52.488;13.428;2023-02-15T00:21:32;32.75;;;13.25;;
75419;SDS011;63998;52.488;13.428;2023-02-15T00:23:59;30.70;;;13.25;;
75419;SDS011;63998;52.488;13.428;2023-02-15T00:26:26;35.00;;;15.50;;
75419;SDS011;63998;52.488;13.428;2023-02-15T00:28:52;29.65;;;13.20;;
75419;SDS011;63998;52.488;13.428;2023-02-15T00:31:18;26.10;;;13.32;;
75419;SDS011;63998;52.488;13.428;2023-02-15T00:33:43;29.90;;;13.38;;
75419;SDS011;63998;52.488;13.428;2023-02-15T00:36:11;30.67;;;14.83;;
75419;SDS011;63998;52.488;13.428;2023-02-15T00:38:41;26.73;;;13.25;;
75419;SDS011;63998;52.488;13.428;2023-02-15T00:41:09;31.00;;;13.93;;
75419;SDS011;63998;52.488;13.428;2023-02-15T00:43:37;30.15;;;14.50;;
75419;SDS011;63998;52.488;13.428;2023-02-15T00:46:02;28.63;;;13.15;;
75419;SDS011;63998;52.488;13.428;2023-02-15T00:48:29;28.02;;;13.38;;
75419;SDS011;63998;52.488;13.428;2023-02-15T00:50:55;26.95;;;12.75;;
75419;SDS011;63998;52.488;13.428;2023-02-15T00:53:23;29.38;;;12.95;;
75419;SDS011;63998;52.488;13.428;2023-02-15T00:55:49;26.88;;;13.25;;
75419;SDS011;63998;52.488;13.428;2023-02-15T00:58:17;31.90;;;13.98;;
75419;SDS011;63998;52.488;13.428;2023-02-15T01:00:43;29.85;;;13.68;;
75419;SDS011;63998;52.488;13.428;2023-02-15T01:03:11;28.17;;;13.23;;
75419;SDS011;63998;52.488;13.428;2023-02-15T01:05:37;29.98;;;13.15;;
75419;SDS011;63998;52.488;13.428;2023-02-15T01:08:03;30.02;;;13.48;;
75419;SDS011;63998;52.488;13.428;2023-02-15T01:10:29;28.70;;;13.93;;
75419;SDS011;63998;52.488;13.428;2023-02-15T01:12:58;31.33;;;14.05;;
75419;SDS011;63998;52.488;13.428;2023-02-15T01:15:23;32.10;;;15.03;;
75419;SDS011;63998;52.488;13.428;2023-02-15T01:17:49;26.42;;;13.43;;
75419;SDS011;63998;52.488;13.428;2023-02-15T01:20:22;29.77;;;13.57;;
75419;SDS011;63998;52.488;13.428;2023-02-15T01:22:50;28.70;;;13.20;;
75419;SDS011;63998;52.488;13.428;2023-02-15T01:25:17;28.42;;;13.02;;
75419;SDS011;63998;52.488;13.428;2023-02-15T01:27:44;32.17;;;14.23;;
75419;SDS011;63998;52.488;13.428;2023-02-15T01:30:10;29.40;;;13.73;;
75419;SDS011;63998;52.488;13.428;2023-02-15T01:32:36;29.38;;;12.98;;
75419;SDS011;63998;52.488;13.428;2023-02-15T01:35:04;29.23;;;13.57;;
75419;SDS011;63998;52.488;13.428;2023-02-15T01:37:30;29.25;;;13.60;;
75419;SDS011;63998;52.488;13.428;2023-02-15T01:39:59;30.60;;;13.65;;
75419;SDS011;63998;52.488;13.428;2023-02-15T01:42:28;25.15;;;12.88;;
75419;SDS011;63998;52.488;13.428;2023-02-15T01:44:55;31.20;;;13.52;;
75419;SDS011;63998;52.488;13.428;2023-02-15T01:47:43;26.67;;;13.95;;
75419;SDS011;63998;52.488;13.428;2023-02-15T01:52:51;31.23;;;14.07;;
75419;SDS011;63998;52.488;13.428;2023-02-15T01:55:24;31.20;;;13.27;;
75419;SDS011;63998;52.488;13.428;2023-02-15T01:57:55;31.83;;;13.80;;
75419;SDS011;63998;52.488;13.428;2023-02-15T02:00:20;29.55;;;13.40;;
75419;SDS011;63998;52.488;13.428;2023-02-15T02:02:49;31.92;;;13.55;;
75419;SDS011;63998;52.488;13.428;2023-02-15T02:05:20;32.58;;;14.57;;
75419;SDS011;63998;52.488;13.428;2023-02-15T02:07:46;33.38;;;13.32;;
75419;SDS011;63998;52.488;13.428;2023-02-15T02:10:15;30.92;;;13.77;;
75419;SDS011;63998;52.488;13.428;2023-02-15T02:12:44;31.65;;;14.23;;
75419;SDS011;63998;52.488;13.428;2023-02-15T02:15:17;30.50;;;13.88;;
75419;SDS011;63998;52.488;13.428;2023-02-15T02:18:03;29.98;;;14.45;;
75419;SDS011;63998;52.488;13.428;2023-02-15T02:21:01;35.80;;;15.45;;
75419;SDS011;63998;52.488;13.428;2023-02-15T02:31:08;35.50;;;15.15;;
75419;SDS011;63998;52.488;13.428;2023-02-15T02:42:06;36.72;;;15.80;;
75419;SDS011;63998;52.488;13.428;2023-02-15T02:44:43;36.92;;;15.55;;
75419;SDS011;63998;52.488;13.428;2023-02-15T02:47:18;40.33;;;17.85;;
75419;SDS011;63998;52.488;13.428;2023-02-15T02:49:45;45.28;;;17.77;;
75419;SDS011;63998;52.488;13.428;2023-02-15T03:00:34;44.40;;;17.83;;
75419;SDS011;63998;52.488;13.428;2023-02-15T03:03:06;42.15;;;16.65;;
75419;SDS011;63998;52.488;13.428;2023-02-15T03:05:37;41.13;;;17.98;;
75419;SDS011;63998;52.488;13.428;2023-02-15T03:08:06;42.30;;;17.88;;
75419;SDS011;63998;52.488;13.428;2023-02-15T03:10:36;48.60;;;18.67;;
75419;SDS011;63998;52.488;13.428;2023-02-15T03:13:04;43.28;;;19.52;;
75419;SDS011;63998;52.488;13.428;2023-02-15T03:15:31;43.05;;;17.75;;
75419;SDS011;63998;52.488;13.428;2023-02-15T03:18:44;40.72;;;17.58;;
75419;SDS011;63998;52.488;13.428;2023-02-15T03:21:17;38.53;;;16.08;;
75419;SDS011;63998;52.488;13.428;2023-02-15T03:23:49;43.45;;;18.17;;
75419;SDS011;63998;52.488;13.428;2023-02-15T03:26:17;42.45;;;18.17;;
75419;SDS011;63998;52.488;13.428;2023-02-15T03:28:45;42.70;;;17.02;;
75419;SDS011;63998;52.488;13.428;2023-02-15T03:31:19;41.20;;;18.23;;
75419;SDS011;63998;52.488;13.428;2023-02-15T03:33:58;45.35;;;18.63;;
75419;SDS011;63998;52.488;13.428;2023-02-15T03:36:49;39.55;;;17.65;;
75419;SDS011;63998;52.488;13.428;2023-02-15T03:45:05;43.15;;;17.83;;
75419;SDS011;63998;52.488;13.428;2023-02-15T03:47:38;44.33;;;17.08;;
75419;SDS011;63998;52.488;13.428;2023-02-15T03:50:13;42.53;;;17.17;;
75419;SDS011;63998;52.488;13.428;2023-02-15T03:53:03;41.15;;;16.90;;
75419;SDS011;63998;52.488;13.428;2023-02-15T03:55:31;43.42;;;17.20;;
75419;SDS011;63998;52.488;13.428;2023-02-15T03:57:59;45.70;;;17.33;;
75419;SDS011;63998;52.488;13.428;2023-02-15T04:00:46;45.88;;;17.98;;
75419;SDS011;63998;52.488;13.428;2023-02-15T04:03:41;44.75;;;17.02;;
75419;SDS011;63998;52.488;13.428;2023-02-15T04:06:10;40.72;;;16.40;;
75419;SDS011;63998;52.488;13.428;2023-02-15T04:08:35;42.73;;;17.97;;
75419;SDS011;63998;52.488;13.428;2023-02-15T04:11:19;45.78;;;17.42;;
75419;SDS011;63998;52.488;13.428;2023-02-15T04:13:44;42.60;;;17.67;;
75419;SDS011;63998;52.488;13.428;2023-02-15T04:16:10;44.95;;;19.45;;
75419;SDS011;63998;52.488;13.428;2023-02-15T04:18:39;47.80;;;18.50;;
75419;SDS011;63998;52.488;13.428;2023-02-15T04:21:27;37.30;;;16.58;;
75419;SDS011;63998;52.488;13.428;2023-02-15T04:24:12;40.47;;;16.55;;
75419;SDS011;63998;52.488;13.428;2023-02-15T04:26:58;42.42;;;16.80;;
75419;SDS011;63998;52.488;13.428;2023-02-15T04:29:29;42.85;;;15.88;;
75419;SDS011;63998;52.488;13.428;2023-02-15T04:31:57;39.55;;;16.08;;
75419;SDS011;63998;52.488;13.428;2023-02-15T04:34:24;39.38;;;16.85;;
75419;SDS011;63998;52.488;13.428;2023-02-15T04:36:51;44.58;;;16.67;;
75419;SDS011;63998;52.488;13.428;2023-02-15T04:39:17;36.60;;;15.40;;
75419;SDS011;63998;52.488;13.428;2023-02-15T04:41:46;43.28;;;17.02;;
75419;SDS011;63998;52.488;13.428;2023-02-15T04:44:13;38.67;;;16.60;;
75419;SDS011;63998;52.488;13.428;2023-02-15T04:46:41;36.33;;;15.55;;
75419;SDS011;63998;52.488;13.428;2023-02-15T04:49:09;42.25;;;16.25;;
75419;SDS011;63998;52.488;13.428;2023-02-15T04:51:34;40.72;;;17.23;;
75419;SDS011;63998;52.488;13.428;2023-02-15T04:54:00;39.17;;;16.13;;
75419;SDS011;63998;52.488;13.428;2023-02-15T04:56:27;36.05;;;15.90;;
75419;SDS011;63998;52.488;13.428;2023-02-15T04:58:54;38.95;;;16.27;;
75419;SDS011;63998;52.488;13.428;2023-02-15T05:01:20;37.10;;;15.63;;
75419;SDS011;63998;52.488;13.428;2023-02-15T05:03:45;45.20;;;18.00;;
75419;SDS011;63998;52.488;13.428;2023-02-15T05:06:11;39.15;;;17.50;;
75419;SDS011;63998;52.488;13.428;2023-02-15T05:08:38;43.97;;;17.20;;
75419;SDS011;63998;52.488;13.428;2023-02-15T05:11:03;43.20;;;16.70;;
75419;SDS011;63998;52.488;13.428;2023-02-15T05:13:31;44.60;;;17.75;;
75419;SDS011;63998;52.488;13.428;2023-02-15T05:15:56;42.47;;;16.10;;
75419;SDS011;63998;52.488;13.428;2023-02-15T05:18:22;45.20;;;17.15;;
75419;SDS011;63998;52.488;13.428;2023-02-15T05:20:48;40.92;;;16.30;;
75419;SDS011;63998;52.488;13.428;2023-02-15T05:23:14;41.17;;;16.98;;
75419;SDS011;63998;52.488;13.428;2023-02-15T05:25:45;43.23;;;16.53;;
75419;SDS011;63998;52.488;13.428;2023-02-15T05:28:30;43.65;;;17.42;;
75419;SDS011;63998;52.488;13.428;2023-02-15T05:33:27;46.47;;;17.48;;
75419;SDS011;63998;52.488;13.428;2023-02-15T05:35:52;43.95;;;17.33;;
75419;SDS011;63998;52.488;13.428;2023-02-15T05:38:20;43.25;;;16.85;;
75419;SDS011;63998;52.488;13.428;2023-02-15T05:40:45;44.58;;;16.80;;
75419;SDS011;63998;52.488;13.428;2023-02-15T05:43:11;60.10;;;28.17;;
75419;SDS011;63998;52.488;13.428;2023-02-15T05:45:39;63.17;;;26.93;;
75419;SDS011;63998;52.488;13.428;2023-02-15T05:48:04;49.17;;;21.80;;
75419;SDS011;63998;52.488;13.428;2023-02-15T05:50:32;53.03;;;20.10;;
75419;SDS011;63998;52.488;13.428;2023-02-15T05:52:57;60.40;;;28.03;;
75419;SDS011;63998;52.488;13.428;2023-02-15T05:55:25;49.30;;;18.75;;
75419;SDS011;63998;52.488;13.428;2023-02-15T05:57:50;64.28;;;25.23;;
75419;SDS011;63998;52.488;13.428;2023-02-15T06:00:16;50.83;;;19.53;;
75419;SDS011;63998;52.488;13.428;2023-02-15T06:02:41;55.72;;;21.80;;
75419;SDS011;63998;52.488;13.428;2023-02-15T06:05:07;50.50;;;19.42;;
75419;SDS011;63998;52.488;13.428;2023-02-15T06:07:34;48.13;;;17.70;;
75419;SDS011;63998;52.488;13.428;2023-02-15T06:10:02;52.53;;;19.08;;
75419;SDS011;63998;52.488;13.428;2023-02-15T06:12:28;46.03;;;19.63;;
75419;SDS011;63998;52.488;13.428;2023-02-15T06:14:54;49.65;;;21.85;;
75419;SDS011;63998;52.488;13.428;2023-02-15T06:17:21;52.90;;;18.83;;
75419;SDS011;63998;52.488;13.428;2023-02-15T06:19:47;49.45;;;19.58;;
75419;SDS011;63998;52.488;13.428;2023-02-15T06:22:14;44.72;;;16.10;;
75419;SDS011;63998;52.488;13.428;2023-02-15T06:24:42;56.40;;;19.80;;
75419;SDS011;63998;52.488;13.428;2023-02-15T06:27:08;55.22;;;19.92;;
75419;SDS011;63998;52.488;13.428;2023-02-15T06:29:36;46.70;;;16.98;;
75419;SDS011;63998;52.488;13.428;2023-02-15T06:32:01;69.67;;;19.93;;
75419;SDS011;63998;52.488;13.428;2023-02-15T06:34:26;56.57;;;18.10;;
75419;SDS011;63998;52.488;13.428;2023-02-15T06:36:56;49.65;;;17.70;;
75419;SDS011;63998;52.488;13.428;2023-02-15T06:39:21;56.80;;;19.60;;
75419;SDS011;63998;52.488;13.428;2023-02-15T06:41:50;97.65;;;48.85;;
75419;SDS011;63998;52.488;13.428;2023-02-15T06:44:17;103.25;;;41.00;;
75419;SDS011;63998;52.488;13.428;2023-02-15T06:46:43;51.65;;;20.65;;
75419;SDS011;63998;52.488;13.428;2023-02-15T06:49:10;52.50;;;20.00;;
75419;SDS011;63998;52.488;13.428;2023-02-15T06:51:38;49.08;;;19.27;;
75419;SDS011;63998;52.488;13.428;2023-02-15T06:54:03;54.67;;;21.23;;
75419;SDS011;63998;52.488;13.428;2023-02-15T06:56:31;53.42;;;17.95;;
75419;SDS011;63998;52.488;13.428;2023-02-15T06:58:56;49.10;;;18.63;;
75419;SDS011;63998;52.488;13.428;2023-02-15T07:01:22;61.78;;;19.98;;
75419;SDS011;63998;52.488;13.428;2023-02-15T07:03:47;51.08;;;19.73;;
75419;SDS011;63998;52.488;13.428;2023-02-15T07:06:15;54.55;;;19.73;;
75419;SDS011;63998;52.488;13.428;2023-02-15T07:08:40;59.77;;;23.13;;
75419;SDS011;63998;52.488;13.428;2023-02-15T07:11:08;55.25;;;20.90;;
75419;SDS011;63998;52.488;13.428;2023-02-15T07:13:52;54.92;;;19.73;;
75419;SDS011;63998;52.488;13.428;2023-02-15T07:16:18;50.65;;;19.55;;
75419;SDS011;63998;52.488;13.428;2023-02-15T07:18:43;53.58;;;18.95;;
75419;SDS011;63998;52.488;13.428;2023-02-15T07:21:09;53.97;;;17.20;;
75419;SDS011;63998;52.488;13.428;2023-02-15T07:23:35;52.83;;;19.95;;
75419;SDS011;63998;52.488;13.428;2023-02-15T07:26:02;53.78;;;19.92;;
75419;SDS011;63998;52.488;13.428;2023-02-15T07:28:31;55.75;;;25.77;;
75419;SDS011;63998;52.488;13.428;2023-02-15T07:30:57;53.03;;;21.63;;
75419;SDS011;63998;52.488;13.428;2023-02-15T07:33:23;47.17;;;19.17;;
75419;SDS011;63998;52.488;13.428;2023-02-15T07:35:52;39.72;;;16.98;;
75419;SDS011;63998;52.488;13.428;2023-02-15T07:38:20;45.67;;;18.60;;
75419;SDS011;63998;52.488;13.428;2023-02-15T07:40:48;53.13;;;19.65;;
75419;SDS011;63998;52.488;13.428;2023-02-15T07:43:16;44.90;;;18.63;;
75419;SDS011;63998;52.488;13.428;2023-02-15T07:45:43;58.47;;;19.73;;
75419;SDS011;63998;52.488;13.428;2023-02-15T07:48:11;46.65;;;17.70;;
75419;SDS011;63998;52.488;13.428;2023-02-15T07:50:39;55.30;;;20.43;;
75419;SDS011;63998;52.488;13.428;2023-02-15T07:53:06;87.47;;;18.52;;
75419;SDS011;63998;52.488;13.428;2023-02-15T07:55:32;52.37;;;16.40;;
75419;SDS011;63998;52.488;13.428;2023-02-15T07:57:59;45.20;;;17.92;;
75419;SDS011;63998;52.488;13.428;2023-02-15T08:00:25;49.97;;;16.73;;
75419;SDS011;63998;52.488;13.428;2023-02-15T08:02:51;33.08;;;15.15;;
75419;SDS011;63998;52.488;13.428;2023-02-15T08:05:37;52.88;;;18.08;;
75419;SDS011;63998;52.488;13.428;2023-02-15T08:08:03;49.97;;;17.48;;
75419;SDS011;63998;52.488;13.428;2023-02-15T08:10:28;54.88;;;18.48;;
75419;SDS011;63998;52.488;13.428;2023-02-15T08:13:12;49.85;;;18.05;;
75419;SDS011;63998;52.488;13.428;2023-02-15T08:15:47;58.05;;;18.60;;
75419;SDS011;63998;52.488;13.428;2023-02-15T08:18:13;56.15;;;16.58;;
75419;SDS011;63998;52.488;13.428;2023-02-15T08:20:38;54.00;;;19.25;;
75419;SDS011;63998;52.488;13.428;2023-02-15T08:23:03;49.70;;;17.53;;
75419;SDS011;63998;52.488;13.428;2023-02-15T08:25:29;46.03;;;16.60;;
75419;SDS011;63998;52.488;13.428;2023-02-15T08:27:56;51.17;;;18.87;;
75419;SDS011;63998;52.488;13.428;2023-02-15T08:30:22;47.78;;;16.42;;
75419;SDS011;63998;52.488;13.428;2023-02-15T08:32:47;55.13;;;15.15;;
75419;SDS011;63998;52.488;13.428;2023-02-15T08:35:13;60.53;;;16.52;;
75419;SDS011;63998;52.488;13.428;2023-02-15T08:37:38;69.07;;;16.02;;
75419;SDS011;63998;52.488;13.428;2023-02-15T08:40:04;42.53;;;17.08;;
75419;SDS011;63998;52.488;13.428;2023-02-15T08:42:32;49.63;;;18.85;;
75419;SDS011;63998;52.488;13.428;2023-02-15T08:44:58;47.28;;;16.33;;
75419;SDS011;63998;52.488;13.428;2023-02-15T08:47:26;52.92;;;16.08;;
75419;SDS011;63998;52.488;13.428;2023-02-15T08:49:51;55.97;;;21.37;;
75419;SDS011;63998;52.488;13.428;2023-02-15T08:52:17;49.25;;;17.38;;
75419;SDS011;63998;52.488;13.428;2023-02-15T08:54:44;41.60;;;16.63;;
75419;SDS011;63998;52.488;13.428;2023-02-15T08:57:12;48.08;;;15.57;;
75419;SDS011;63998;52.488;13.428;2023-02-15T08:59:37;41.57;;;16.00;;
75419;SDS011;63998;52.488;13.428;2023-02-15T09:02:05;43.33;;;15.55;;
75419;SDS011;63998;52.488;13.428;2023-02-15T09:04:30;40.17;;;16.23;;
75419;SDS011;63998;52.488;13.428;2023-02-15T09:06:56;40.53;;;15.25;;
75419;SDS011;63998;52.488;13.428;2023-02-15T09:09:22;44.38;;;17.42;;
75419;SDS011;63998;52.488;13.428;2023-02-15T09:11:52;40.42;;;16.15;;
75419;SDS011;63998;52.488;13.428;2023-02-15T09:14:20;40.03;;;15.95;;
75419;SDS011;63998;52.488;13.428;2023-02-15T09:19:14;36.08;;;15.05;;
75419;SDS011;63998;52.488;13.428;2023-02-15T09:21:42;36.13;;;14.10;;
75419;SDS011;63998;52.488;13.428;2023-02-15T09:24:12;33.50;;;13.25;;
75419;SDS011;63998;52.488;13.428;2023-02-15T09:26:40;37.83;;;14.70;;
75419;SDS011;63998;52.488;13.428;2023-02-15T09:29:12;29.20;;;13.80;;
75419;SDS011;63998;52.488;13.428;2023-02-15T09:31:40;34.72;;;14.85;;
75419;SDS011;63998;52.488;13.428;2023-02-15T09:34:11;31.30;;;14.05;;
75419;SDS011;63998;52.488;13.428;2023-02-15T09:36:41;37.40;;;14.85;;
75419;SDS011;63998;52.488;13.428;2023-02-15T09:39:11;34.55;;;15.00;;
75419;SDS011;63998;52.488;13.428;2023-02-15T10:00:54;34.03;;;15.25;;
75419;SDS011;63998;52.488;13.428;2023-02-15T10:03:37;34.05;;;13.18;;
75419;SDS011;63998;52.488;13.428;2023-02-15T10:28:17;31.33;;;13.60;;
75419;SDS011;63998;52.488;13.428;2023-02-15T10:33:20;35.28;;;14.23;;
75419;SDS011;63998;52.488;13.428;2023-02-15T10:36:11;31.20;;;14.15;;
75419;SDS011;63998;52.488;13.428;2023-02-15T10:41:30;32.55;;;15.48;;
75419;SDS011;63998;52.488;13.428;2023-02-15T11:07:22;31.00;;;15.15;;
75419;SDS011;63998;52.488;13.428;2023-02-15T11:10:00;31.08;;;14.35;;
75419;SDS011;63998;52.488;13.428;2023-02-15T11:12:34;28.73;;;14.27;;
75419;SDS011;63998;52.488;13.428;2023-02-15T11:17:44;32.85;;;14.27;;
75419;SDS011;63998;52.488;13.428;2023-02-15T11:22:58;31.98;;;15.38;;
75419;SDS011;63998;52.488;13.428;2023-02-15T11:25:30;26.15;;;13.07;;
75419;SDS011;63998;52.488;13.428;2023-02-15T11:27:58;28.10;;;13.43;;
75419;SDS011;63998;52.488;13.428;2023-02-15T11:30:49;29.80;;;13.90;;
75419;SDS011;63998;52.488;13.428;2023-02-15T11:33:29;25.25;;;13.25;;
75419;SDS011;63998;52.488;13.428;2023-02-15T11:36:05;31.15;;;14.40;;
75419;SDS011;63998;52.488;13.428;2023-02-15T11:38:37;26.40;;;13.90;;
75419;SDS011;63998;52.488;13.428;2023-02-15T11:41:12;25.27;;;12.68;;
75419;SDS011;63998;52.488;13.428;2023-02-15T11:43:53;31.50;;;13.82;;
75419;SDS011;63998;52.488;13.428;2023-02-15T11:46:40;31.83;;;13.95;;
75419;SDS011;63998;52.488;13.428;2023-02-15T11:49:29;28.60;;;14.40;;
75419;SDS011;63998;52.488;13.428;2023-02-15T11:51:57;31.08;;;13.70;;
75419;SDS011;63998;52.488;13.428;2023-02-15T11:54:27;28.00;;;13.23;;
75419;SDS011;63998;52.488;13.428;2023-02-15T11:56:59;28.83;;;14.15;;
75419;SDS011;63998;52.488;13.428;2023-02-15T11:59:36;26.85;;;14.07;;
75419;SDS011;63998;52.488;13.428;2023-02-15T12:02:19;28.08;;;13.52;;
75419;SDS011;63998;52.488;13.428;2023-02-15T12:04:51;26.02;;;13.57;;
75419;SDS011;63998;52.488;13.428;2023-02-15T12:10:20;29.45;;;14.35;;
75419;SDS011;63998;52.488;13.428;2023-02-15T12:12:55;28.52;;;14.63;;
75419;SDS011;63998;52.488;13.428;2023-02-15T12:15:34;28.65;;;13.65;;
75419;SDS011;63998;52.488;13.428;2023-02-15T12:18:03;31.15;;;13.98;;
75419;SDS011;63998;52.488;13.428;2023-02-15T12:20:32;25.27;;;14.10;;
75419;SDS011;63998;52.488;13.428;2023-02-15T12:23:06;27.67;;;13.88;;
75419;SDS011;63998;52.488;13.428;2023-02-15T12:25:41;31.98;;;13.45;;
75419;SDS011;63998;52.488;13.428;2023-02-15T12:30:53;31.92;;;15.55;;
75419;SDS011;63998;52.488;13.428;2023-02-15T12:35:59;31.67;;;15.88;;
75419;SDS011;63998;52.488;13.428;2023-02-15T12:38:26;42.17;;;20.02;;
75419;SDS011;63998;52.488;13.428;2023-02-15T12:41:00;27.30;;;13.65;;
75419;SDS011;63998;52.488;13.428;2023-02-15T12:43:31;26.85;;;14.20;;
75419;SDS011;63998;52.488;13.428;2023-02-15T12:48:41;22.75;;;12.77;;
75419;SDS011;63998;52.488;13.428;2023-02-15T12:51:07;26.23;;;13.43;;
75419;SDS011;63998;52.488;13.428;2023-02-15T12:53:34;25.88;;;14.13;;
75419;SDS011;63998;52.488;13.428;2023-02-15T12:56:04;24.83;;;13.20;;
75419;SDS011;63998;52.488;13.428;2023-02-15T12:58:32;25.90;;;14.13;;
75419;SDS011;63998;52.488;13.428;2023-02-15T13:03:28;25.52;;;13.80;;
75419;SDS011;63998;52.488;13.428;2023-02-15T13:05:54;26.73;;;14.35;;
75419;SDS011;63998;52.488;13.428;2023-02-15T13:08:26;25.73;;;13.18;;
75419;SDS011;63998;52.488;13.428;2023-02-15T13:10:59;26.52;;;12.85;;
75419;SDS011;63998;52.488;13.428;2023-02-15T13:13:32;31.23;;;16.15;;
75419;SDS011;63998;52.488;13.428;2023-02-15T13:16:07;28.38;;;15.52;;
75419;SDS011;63998;52.488;13.428;2023-02-15T13:18:44;26.63;;;14.73;;
75419;SDS011;63998;52.488;13.428;2023-02-15T13:21:20;28.13;;;15.02;;
75419;SDS011;63998;52.488;13.428;2023-02-15T13:23:53;27.40;;;14.02;;
75419;SDS011;63998;52.488;13.428;2023-02-15T13:26:23;24.88;;;13.90;;
75419;SDS011;63998;52.488;13.428;2023-02-15T13:28:52;23.73;;;13.55;;
75419;SDS011;63998;52.488;13.428;2023-02-15T13:31:23;24.33;;;13.98;;
75419;SDS011;63998;52.488;13.428;2023-02-15T13:34:00;26.38;;;14.27;;
75419;SDS011;63998;52.488;13.428;2023-02-15T13:37:08;27.08;;;14.55;;
75419;SDS011;63998;52.488;13.428;2023-02-15T13:56:02;28.38;;;14.68;;
75419;SDS011;63998;52.488;13.428;2023-02-15T14:01:36;24.95;;;14.05;;
75419;SDS011;63998;52.488;13.428;2023-02-15T14:17:53;38.10;;;21.10;;
75419;SDS011;63998;52.488;13.428;2023-02-15T14:26:05;27.38;;;15.57;;
75419;SDS011;63998;52.488;13.428;2023-02-15T14:28:55;26.40;;;14.32;;
75419;SDS011;63998;52.488;13.428;2023-02-15T14:31:33;20.80;;;12.48;;
75419;SDS011;63998;52.488;13.428;2023-02-15T14:34:08;23.60;;;12.73;;
75419;SDS011;63998;52.488;13.428;2023-02-15T14:36:49;24.90;;;14.15;;
75419;SDS011;63998;52.488;13.428;2023-02-15T14:42:34;23.80;;;13.88;;
75419;SDS011;63998;52.488;13.428;2023-02-15T14:47:46;20.60;;;12.80;;
75419;SDS011;63998;52.488;13.428;2023-02-15T14:56:04;24.23;;;15.38;;
75419;SDS011;63998;52.488;13.428;2023-02-15T14:58:38;30.38;;;16.95;;
75419;SDS011;63998;52.488;13.428;2023-02-15T15:01:28;32.45;;;19.13;;
75419;SDS011;63998;52.488;13.428;2023-02-15T15:03:59;30.70;;;18.95;;
75419;SDS011;63998;52.488;13.428;2023-02-15T15:06:30;33.97;;;20.13;;
75419;SDS011;63998;52.488;13.428;2023-02-15T15:09:05;26.65;;;15.43;;
75419;SDS011;63998;52.488;13.428;2023-02-15T15:11:42;24.45;;;14.98;;
75419;SDS011;63998;52.488;13.428;2023-02-15T15:16:59;25.13;;;14.88;;
75419;SDS011;63998;52.488;13.428;2023-02-15T15:20:00;24.83;;;16.33;;
75419;SDS011;63998;52.488;13.428;2023-02-15T15:22:18;22.88;;;13.75;;
75419;SDS011;63998;52.488;13.428;2023-02-15T15:41:42;23.67;;;13.70;;
75419;SDS011;63998;52.488;13.428;2023-02-15T15:52:37;21.30;;;12.13;;
75419;SDS011;63998;52.488;13.428;2023-02-15T15:55:05;23.13;;;14.07;;
75419;SDS011;63998;52.488;13.428;2023-02-15T15:57:44;23.33;;;13.43;;
75419;SDS011;63998;52.488;13.428;2023-02-15T16:00:23;25.75;;;13.65;;
75419;SDS011;63998;52.488;13.428;2023-02-15T16:03:00;20.08;;;12.98;;
75419;SDS011;63998;52.488;13.428;2023-02-15T16:05:35;23.88;;;13.80;;
75419;SDS011;63998;52.488;13.428;2023-02-15T16:08:05;22.98;;;13.88;;
75419;SDS011;63998;52.488;13.428;2023-02-15T16:10:31;25.35;;;14.50;;
75419;SDS011;63998;52.488;13.428;2023-02-15T16:12:59;24.52;;;13.20;;
75419;SDS011;63998;52.488;13.428;2023-02-15T16:15:34;22.73;;;13.02;;
75419;SDS011;63998;52.488;13.428;2023-02-15T16:18:02;23.40;;;12.45;;
75419;SDS011;63998;52.488;13.428;2023-02-15T16:20:35;24.95;;;14.15;;
75419;SDS011;63998;52.488;13.428;2023-02-15T16:23:26;27.15;;;14.98;;
75419;SDS011;63998;52.488;13.428;2023-02-15T16:28:38;22.35;;;13.32;;
75419;SDS011;63998;52.488;13.428;2023-02-15T16:31:06;23.80;;;13.35;;
75419;SDS011;63998;52.488;13.428;2023-02-15T16:33:38;23.50;;;12.82;;
75419;SDS011;63998;52.488;13.428;2023-02-15T16:36:05;23.05;;;13.60;;
75419;SDS011;63998;52.488;13.428;2023-02-15T16:41:30;22.98;;;12.60;;
75419;SDS011;63998;52.488;13.428;2023-02-15T16:43:56;24.50;;;13.00;;
75419;SDS011;63998;52.488;13.428;2023-02-15T16:46:38;27.15;;;14.05;;
75419;SDS011;63998;52.488;13.428;2023-02-15T16:51:41;27.20;;;15.13;;
75419;SDS011;63998;52.488;13.428;2023-02-15T16:54:19;34.10;;;17.05;;
75419;SDS011;63998;52.488;13.428;2023-02-15T16:56:47;28.33;;;16.02;;
75419;SDS011;63998;52.488;13.428;2023-02-15T16:59:19;29.23;;;15.95;;
75419;SDS011;63998;52.488;13.428;2023-02-15T17:01:54;31.17;;;17.67;;
75419;SDS011;63998;52.488;13.428;2023-02-15T17:07:03;32.87;;;18.60;;
75419;SDS011;63998;52.488;13.428;2023-02-15T17:09:31;35.58;;;18.83;;
75419;SDS011;63998;52.488;13.428;2023-02-15T17:11:57;39.30;;;20.45;;
75419;SDS011;63998;52.488;13.428;2023-02-15T17:14:28;39.05;;;20.92;;
75419;SDS011;63998;52.488;13.428;2023-02-15T17:17:10;41.45;;;21.60;;
75419;SDS011;63998;52.488;13.428;2023-02-15T17:22:07;42.47;;;19.42;;
75419;SDS011;63998;52.488;13.428;2023-02-15T17:24:44;32.85;;;17.58;;
75419;SDS011;63998;52.488;13.428;2023-02-15T17:29:55;38.10;;;18.27;;
75419;SDS011;63998;52.488;13.428;2023-02-15T17:32:23;36.10;;;19.20;;
75419;SDS011;63998;52.488;13.428;2023-02-15T17:34:58;37.72;;;18.20;;
75419;SDS011;63998;52.488;13.428;2023-02-15T17:37:41;37.05;;;19.17;;
75419;SDS011;63998;52.488;13.428;2023-02-15T17:42:54;39.53;;;19.13;;
75419;SDS011;63998;52.488;13.428;2023-02-15T17:45:20;39.55;;;20.25;;
75419;SDS011;63998;52.488;13.428;2023-02-15T17:47:51;38.22;;;20.40;;
75419;SDS011;63998;52.488;13.428;2023-02-15T17:50:21;42.45;;;20.63;;
75419;SDS011;63998;52.488;13.428;2023-02-15T17:52:48;37.95;;;19.70;;
75419;SDS011;63998;52.488;13.428;2023-02-15T17:55:16;40.97;;;21.02;;
75419;SDS011;63998;52.488;13.428;2023-02-15T17:58:03;38.58;;;20.63;;
75419;SDS011;63998;52.488;13.428;2023-02-15T18:03:14;39.78;;;21.67;;
75419;SDS011;63998;52.488;13.428;2023-02-15T18:06:00;39.83;;;20.85;;
75419;SDS011;63998;52.488;13.428;2023-02-15T18:08:44;43.17;;;21.45;;
75419;SDS011;63998;52.488;13.428;2023-02-15T18:11:28;34.10;;;19.08;;
75419;SDS011;63998;52.488;13.428;2023-02-15T18:14:06;39.20;;;22.05;;
75419;SDS011;63998;52.488;13.428;2023-02-15T18:16:41;31.00;;;17.52;;